Pagina principale
METAR-TAF:

METAR-TAF

Aeroporti :

Gilze-Rijen, Paesi Bassi

latitudine: 51-34N, longitudine: 004-56E, altezza: 15 m

Osservazione

Il bollettino è stato emesso 17 minuti fa, alle 23:25 UTC
Vento 2 kt da direzioni variabili
Temperature 14°C
Umidità 55%
Pressione 1022 hPa
Visibilità 10 km o più

METAR: EHGR 302325Z AUTO VRB02KT 9999 NCD 14/05 Q1022 BLU

Ora: 01:42 (23:42 UTC)


TAF: mancante

Osservazioni e previsioni meteorologiche di più di 4000 aeroporti (messaggi METAR e TAF).

Le stazioni disponibili sono rappresentate dai dischi gialli e rossi sulla carta.

Puntare il mouse per vedere il nome della stazione.

Clicca sopra per visualizzare le osservazioni e previsioni meteorologiche.

Per cambiare la mappa : fare clic sui pulsanti verdi con una croce nera per ingrandire, il pulsante verde con un trattino per diminuire, o sulla freccia verde per le mappe adiacenti.


METAR-TAF: